createdAt,value
2022-08-07T00:00:12.772Z,2.90
2022-08-07T00:01:44.370Z,2.70
2022-08-07T00:02:40.398Z,3.60
2022-08-07T00:03:13.718Z,2.90
2022-08-07T00:04:15.303Z,2.60
2022-08-07T00:05:12.790Z,2.00
2022-08-07T00:06:12.690Z,2.50
2022-08-07T00:07:12.816Z,2.50
2022-08-07T00:08:12.671Z,2.20
2022-08-07T00:09:16.885Z,2.40
2022-08-07T00:10:26.226Z,2.00
2022-08-07T00:11:13.605Z,2.40
2022-08-07T00:12:18.990Z,2.10
2022-08-07T00:13:23.981Z,2.30
2022-08-07T00:14:13.587Z,2.10
2022-08-07T00:15:13.620Z,2.00
2022-08-07T00:16:12.546Z,2.10
2022-08-07T00:17:13.650Z,2.00
2022-08-07T00:18:19.247Z,2.00
2022-08-07T00:19:21.527Z,2.00
2022-08-07T00:20:15.619Z,2.10
2022-08-07T00:21:56.706Z,1.90
2022-08-07T00:22:13.496Z,2.00
2022-08-07T00:23:13.490Z,2.20
2022-08-07T00:24:12.499Z,2.20
2022-08-07T00:25:16.587Z,2.20
2022-08-07T00:26:13.330Z,2.10
2022-08-07T00:27:13.470Z,2.30
2022-08-07T00:28:12.472Z,2.20
2022-08-07T00:29:12.435Z,2.20
2022-08-07T00:30:21.796Z,2.30
2022-08-07T00:31:16.588Z,2.00
2022-08-07T00:32:12.382Z,2.10
2022-08-07T00:33:12.364Z,1.80
2022-08-07T00:34:12.372Z,2.20
2022-08-07T00:35:12.335Z,2.20
2022-08-07T00:36:12.434Z,2.30
2022-08-07T00:37:12.367Z,2.10
2022-08-07T00:38:13.104Z,2.10
2022-08-07T00:39:12.757Z,2.30
2022-08-07T00:40:13.991Z,2.30
2022-08-07T00:41:14.835Z,2.10
2022-08-07T00:42:12.269Z,2.10
2022-08-07T00:43:59.224Z,2.00
2022-08-07T00:44:15.116Z,2.40
2022-08-07T00:45:16.152Z,2.20
2022-08-07T00:46:12.368Z,2.60
2022-08-07T00:48:09.783Z,2.60
2022-08-07T00:48:13.341Z,2.40
2022-08-07T00:49:12.209Z,2.60
2022-08-07T00:50:20.391Z,2.50
2022-08-07T00:51:13.206Z,2.50
2022-08-07T00:52:12.214Z,2.70
2022-08-07T00:53:12.147Z,2.40
2022-08-07T00:54:12.267Z,2.20
2022-08-07T00:55:12.131Z,2.00
2022-08-07T00:56:14.030Z,2.70
2022-08-07T00:57:12.291Z,2.40
2022-08-07T00:58:12.099Z,2.30
2022-08-07T00:59:12.111Z,2.10
2022-08-07T01:00:12.139Z,2.10
2022-08-07T01:01:12.136Z,2.20
2022-08-07T01:02:28.136Z,2.30
2022-08-07T01:03:13.046Z,2.20
2022-08-07T01:04:12.055Z,2.40
2022-08-07T01:05:18.835Z,2.60
2022-08-07T01:06:13.015Z,1.90
2022-08-07T01:07:12.055Z,1.80
2022-08-07T01:08:12.017Z,2.20
2022-08-07T01:09:12.009Z,2.40
2022-08-07T01:10:12.965Z,2.10
2022-08-07T01:12:04.726Z,2.10
2022-08-07T01:12:30.009Z,2.00
2022-08-07T01:13:13.008Z,1.90
2022-08-07T01:14:11.944Z,2.00
2022-08-07T01:15:17.675Z,2.00
2022-08-07T01:16:12.898Z,2.00
2022-08-07T01:17:13.996Z,2.40
2022-08-07T01:18:16.631Z,1.80
2022-08-07T01:19:19.010Z,1.90
2022-08-07T01:20:17.183Z,2.10
2022-08-07T01:21:22.905Z,2.10
2022-08-07T01:22:22.514Z,2.50
2022-08-07T01:23:13.077Z,2.20
2022-08-07T01:24:11.818Z,2.50
2022-08-07T01:25:54.131Z,2.20
2022-08-07T01:26:12.780Z,1.70
2022-08-07T01:27:19.477Z,2.30
2022-08-07T01:28:12.784Z,2.50
2022-08-07T01:29:11.788Z,2.20
2022-08-07T01:30:11.745Z,2.50
2022-08-07T01:31:15.545Z,2.40
2022-08-07T01:32:13.660Z,2.30
2022-08-07T01:33:11.726Z,2.70
2022-08-07T01:34:11.700Z,2.80
2022-08-07T01:35:11.805Z,2.50
2022-08-07T01:36:12.741Z,2.80
2022-08-07T01:37:11.665Z,3.00
2022-08-07T01:38:12.301Z,2.40
2022-08-07T01:39:11.683Z,2.40
2022-08-07T01:40:14.966Z,2.70
2022-08-07T01:41:11.733Z,2.60
2022-08-07T01:42:40.292Z,3.10
2022-08-07T01:43:12.638Z,2.90
2022-08-07T01:44:11.597Z,2.50
2022-08-07T01:45:18.187Z,2.70
2022-08-07T01:46:12.571Z,3.00
2022-08-07T01:47:14.287Z,2.60
2022-08-07T01:48:19.414Z,2.90
2022-08-07T01:49:12.522Z,2.60
2022-08-07T01:50:11.527Z,2.80
2022-08-07T01:52:02.735Z,2.50
2022-08-07T01:52:12.497Z,2.70
2022-08-07T01:53:11.481Z,2.50
2022-08-07T01:54:32.636Z,2.70
2022-08-07T01:55:21.982Z,2.80
2022-08-07T01:56:12.474Z,2.40
2022-08-07T01:57:24.280Z,2.30
2022-08-07T01:58:28.970Z,2.20
2022-08-07T01:59:15.903Z,2.30
2022-08-07T02:00:13.012Z,2.10
2022-08-07T02:01:25.572Z,2.10
2022-08-07T02:02:12.508Z,2.60
2022-08-07T02:03:22.038Z,2.30
2022-08-07T02:04:12.431Z,2.20
2022-08-07T02:05:16.065Z,2.10
2022-08-07T02:06:30.698Z,2.40
2022-08-07T02:07:12.374Z,2.50
2022-08-07T02:08:11.314Z,2.10
2022-08-07T02:09:11.654Z,2.00
2022-08-07T02:10:14.347Z,2.30
2022-08-07T02:11:11.280Z,2.40
2022-08-07T02:12:12.327Z,2.40
2022-08-07T02:13:12.316Z,2.30
2022-08-07T02:14:11.247Z,2.20
2022-08-07T02:15:12.236Z,2.40
2022-08-07T02:16:12.021Z,2.30
2022-08-07T02:17:11.302Z,2.10
2022-08-07T02:18:11.234Z,2.40
2022-08-07T02:20:05.435Z,2.40
2022-08-07T02:20:19.708Z,1.70
2022-08-07T02:21:13.791Z,2.10
2022-08-07T02:22:11.166Z,2.00
2022-08-07T02:23:11.686Z,2.30
2022-08-07T02:24:11.165Z,2.00
2022-08-07T02:25:13.808Z,1.80
2022-08-07T02:26:32.919Z,2.00
2022-08-07T02:27:12.106Z,2.00
2022-08-07T02:28:11.301Z,1.80
2022-08-07T02:29:13.527Z,2.30
2022-08-07T02:30:11.080Z,2.10
2022-08-07T02:31:28.555Z,2.40
2022-08-07T02:32:12.058Z,2.00
2022-08-07T02:33:11.065Z,1.90
2022-08-07T02:34:17.340Z,1.90
2022-08-07T02:35:12.036Z,2.10
2022-08-07T02:36:28.807Z,1.90
2022-08-07T02:37:12.001Z,1.80
2022-08-07T02:38:11.005Z,1.90
2022-08-07T02:39:17.046Z,2.20
2022-08-07T02:40:30.665Z,2.10
2022-08-07T02:41:12.067Z,1.80
2022-08-07T02:42:16.178Z,1.80
2022-08-07T02:43:10.998Z,1.90
2022-08-07T02:44:10.925Z,2.00
2022-08-07T02:45:59.144Z,1.90
2022-08-07T02:46:11.914Z,1.90
2022-08-07T02:47:19.328Z,2.20
2022-08-07T02:48:15.746Z,1.70
2022-08-07T02:49:10.912Z,1.70
2022-08-07T02:50:11.916Z,1.90
2022-08-07T02:51:14.216Z,2.10
2022-08-07T02:52:12.990Z,2.10
2022-08-07T02:53:11.117Z,1.90
2022-08-07T02:54:10.872Z,2.20
2022-08-07T02:55:15.260Z,2.00
2022-08-07T02:56:21.104Z,1.90
2022-08-07T02:57:11.798Z,1.80
2022-08-07T02:58:10.875Z,1.90
2022-08-07T02:59:10.783Z,1.80
2022-08-07T03:00:11.047Z,1.70
2022-08-07T03:01:18.703Z,1.90
2022-08-07T03:02:11.805Z,1.90
2022-08-07T03:03:13.556Z,1.80
2022-08-07T03:04:12.803Z,1.90
2022-08-07T03:05:10.764Z,1.90
2022-08-07T03:06:16.609Z,1.90
2022-08-07T03:07:11.768Z,1.90
2022-08-07T03:08:10.759Z,1.90
2022-08-07T03:09:11.210Z,1.80
2022-08-07T03:10:10.664Z,2.10
2022-08-07T03:11:10.628Z,2.00
2022-08-07T03:12:21.823Z,2.00
2022-08-07T03:13:11.661Z,1.50
2022-08-07T03:14:10.612Z,1.60
2022-08-07T03:15:10.634Z,1.70
2022-08-07T03:16:10.626Z,1.80
2022-08-07T03:17:10.621Z,1.50
2022-08-07T03:18:10.636Z,1.70
2022-08-07T03:19:11.588Z,2.00
2022-08-07T03:20:10.610Z,1.80
2022-08-07T03:21:11.278Z,1.70
2022-08-07T03:22:18.831Z,1.80
2022-08-07T03:23:19.257Z,1.60
2022-08-07T03:24:19.307Z,1.70
2022-08-07T03:25:11.474Z,1.80
2022-08-07T03:26:15.653Z,1.90
2022-08-07T03:27:11.476Z,1.80
2022-08-07T03:28:38.258Z,1.90
2022-08-07T03:29:11.438Z,1.80
2022-08-07T03:30:10.806Z,1.80
2022-08-07T03:31:10.453Z,2.10
2022-08-07T03:32:13.233Z,2.00
2022-08-07T03:33:10.393Z,1.90
2022-08-07T03:34:10.413Z,1.90
2022-08-07T03:35:17.738Z,2.10
2022-08-07T03:36:11.356Z,2.00
2022-08-07T03:37:12.359Z,2.20
2022-08-07T03:38:10.532Z,2.20
2022-08-07T03:39:10.393Z,1.90
2022-08-07T03:40:15.829Z,2.20
2022-08-07T03:41:11.303Z,1.80
2022-08-07T03:42:10.315Z,2.00
2022-08-07T03:43:14.588Z,2.00
2022-08-07T03:44:10.299Z,1.80
2022-08-07T03:45:10.275Z,1.70
2022-08-07T03:46:18.428Z,1.80
2022-08-07T03:47:14.384Z,2.30
2022-08-07T03:48:11.457Z,1.90
2022-08-07T03:49:10.292Z,1.90
2022-08-07T03:50:10.650Z,2.20
2022-08-07T03:51:10.312Z,1.90
2022-08-07T03:52:22.395Z,2.00
2022-08-07T03:53:11.199Z,2.00
2022-08-07T03:54:35.886Z,1.70
2022-08-07T03:55:11.265Z,1.80
2022-08-07T03:56:10.210Z,2.00
2022-08-07T03:57:10.125Z,1.90
2022-08-07T03:58:33.677Z,1.70
2022-08-07T03:59:13.352Z,1.70
2022-08-07T04:00:10.504Z,1.90
2022-08-07T04:01:11.151Z,2.10
2022-08-07T04:02:10.073Z,1.90
2022-08-07T04:03:10.113Z,1.90
2022-08-07T04:04:10.147Z,1.50
2022-08-07T04:05:11.053Z,1.80
2022-08-07T04:06:10.029Z,1.80
2022-08-07T04:07:17.460Z,1.80
2022-08-07T04:08:11.136Z,1.70
2022-08-07T04:09:15.644Z,1.60
2022-08-07T04:10:15.625Z,1.60
2022-08-07T04:12:21.370Z,1.50
2022-08-07T04:12:27.692Z,1.60
2022-08-07T04:13:15.163Z,1.60
2022-08-07T04:14:37.794Z,1.70
2022-08-07T04:15:10.961Z,1.90
2022-08-07T04:16:10.765Z,1.80
2022-08-07T04:17:19.906Z,1.60
2022-08-07T04:18:57.738Z,1.90
2022-08-07T04:19:14.659Z,1.50
2022-08-07T04:20:09.968Z,1.90
2022-08-07T04:21:09.859Z,1.60
2022-08-07T04:22:14.546Z,1.40
2022-08-07T04:23:19.226Z,2.00
2022-08-07T04:24:10.848Z,2.00
2022-08-07T04:25:12.627Z,1.70
2022-08-07T04:26:09.859Z,1.80
2022-08-07T04:27:15.228Z,1.90
2022-08-07T04:28:13.351Z,1.50
2022-08-07T04:29:11.034Z,1.80
2022-08-07T04:30:21.603Z,2.00
2022-08-07T04:31:19.756Z,1.70
2022-08-07T04:32:10.923Z,1.90
2022-08-07T04:33:09.871Z,1.90
2022-08-07T04:34:16.280Z,1.60
2022-08-07T04:35:11.308Z,2.00
2022-08-07T04:36:09.730Z,1.80
2022-08-07T04:37:15.449Z,2.00
2022-08-07T04:38:13.158Z,1.80
2022-08-07T04:39:10.553Z,1.90
2022-08-07T04:40:09.703Z,1.90
2022-08-07T04:41:09.676Z,1.90
2022-08-07T04:42:10.677Z,2.00
2022-08-07T04:43:09.624Z,1.90
2022-08-07T04:44:16.080Z,1.80
2022-08-07T04:45:10.639Z,2.20
2022-08-07T04:46:12.299Z,1.60
2022-08-07T04:47:10.606Z,1.90
2022-08-07T04:48:11.133Z,2.00
2022-08-07T04:49:17.884Z,2.30
2022-08-07T04:50:11.019Z,1.60
2022-08-07T04:51:09.562Z,2.00
2022-08-07T04:52:09.562Z,1.90
2022-08-07T04:53:27.756Z,1.90
2022-08-07T04:54:10.537Z,1.80
2022-08-07T04:55:14.864Z,2.20
2022-08-07T04:58:12.970Z,1.60
2022-08-07T04:58:14.999Z,1.70
2022-08-07T04:58:34.842Z,2.10
2022-08-07T05:00:08.920Z,1.90
2022-08-07T05:00:18.701Z,2.10
2022-08-07T05:01:13.581Z,2.00
2022-08-07T05:02:09.427Z,1.80
2022-08-07T05:03:17.357Z,1.60
2022-08-07T05:04:12.475Z,1.80
2022-08-07T05:05:51.837Z,2.20
2022-08-07T05:06:16.307Z,1.70
2022-08-07T05:07:30.650Z,2.20
2022-08-07T05:08:10.411Z,2.00
2022-08-07T05:09:09.394Z,1.90
2022-08-07T05:10:11.071Z,2.00
2022-08-07T05:11:09.313Z,2.00
2022-08-07T05:12:09.411Z,2.00
2022-08-07T05:14:44.860Z,1.70
2022-08-07T05:14:52.440Z,2.10
2022-08-07T05:15:10.334Z,1.90
2022-08-07T05:16:09.285Z,1.60
2022-08-07T05:17:11.908Z,1.30
2022-08-07T05:18:10.323Z,1.60
2022-08-07T05:19:09.232Z,1.80
2022-08-07T05:20:09.940Z,1.50
2022-08-07T05:21:09.347Z,1.50
2022-08-07T05:22:09.250Z,1.60
2022-08-07T05:23:15.439Z,1.70
2022-08-07T05:24:10.184Z,1.50
2022-08-07T05:25:11.766Z,1.50
2022-08-07T05:26:13.722Z,1.50
2022-08-07T05:27:14.539Z,1.60
2022-08-07T05:28:19.901Z,1.80
2022-08-07T05:29:10.782Z,1.50
2022-08-07T05:30:09.139Z,1.60
2022-08-07T05:31:09.106Z,1.60
2022-08-07T05:32:09.143Z,1.60
2022-08-07T05:33:09.255Z,1.50
2022-08-07T05:34:10.994Z,1.60
2022-08-07T05:35:09.111Z,1.30
2022-08-07T05:36:12.035Z,1.80
2022-08-07T05:37:09.176Z,1.40
2022-08-07T05:38:09.696Z,1.40
2022-08-07T05:40:14.104Z,1.30
2022-08-07T05:40:18.627Z,1.50
2022-08-07T05:41:14.494Z,1.40
2022-08-07T05:42:12.540Z,1.40
2022-08-07T05:43:10.612Z,1.70
2022-08-07T05:44:12.632Z,1.70
2022-08-07T05:45:14.349Z,1.60
2022-08-07T05:46:10.033Z,1.40
2022-08-07T05:47:18.850Z,1.40
2022-08-07T05:48:10.216Z,1.40
2022-08-07T05:49:12.336Z,1.20
2022-08-07T05:50:08.900Z,1.50
2022-08-07T05:51:08.946Z,1.60
2022-08-07T05:52:11.781Z,1.30
2022-08-07T05:54:12.731Z,1.50
2022-08-07T05:54:30.267Z,1.40
2022-08-07T05:55:10.714Z,1.50
2022-08-07T05:56:08.838Z,1.40
2022-08-07T05:57:09.127Z,1.30
2022-08-07T05:58:08.822Z,1.50
2022-08-07T05:59:08.880Z,1.30
2022-08-07T06:00:08.876Z,1.30
2022-08-07T06:01:10.660Z,1.50
2022-08-07T06:02:08.798Z,1.50
2022-08-07T06:03:08.867Z,1.40
2022-08-07T06:04:08.730Z,1.60
2022-08-07T06:05:10.999Z,1.50
2022-08-07T06:06:17.257Z,1.30
2022-08-07T06:07:09.774Z,1.30
2022-08-07T06:08:29.867Z,1.40
2022-08-07T06:09:09.699Z,1.30
2022-08-07T06:10:11.266Z,1.60
2022-08-07T06:11:09.681Z,1.40
2022-08-07T06:12:08.646Z,1.50
2022-08-07T06:13:13.309Z,1.30
2022-08-07T06:14:12.212Z,1.40
2022-08-07T06:15:09.632Z,1.10
2022-08-07T06:16:10.217Z,1.40
2022-08-07T06:17:08.675Z,1.30
2022-08-07T06:18:08.622Z,1.40
2022-08-07T06:19:08.626Z,1.30
2022-08-07T06:20:12.706Z,1.30
2022-08-07T06:22:14.300Z,1.40
2022-08-07T06:22:14.499Z,1.20
2022-08-07T06:23:46.741Z,1.20
2022-08-07T06:24:45.612Z,1.40
2022-08-07T06:25:10.262Z,1.60
2022-08-07T06:26:08.509Z,1.50
2022-08-07T06:27:08.488Z,1.60
2022-08-07T06:28:08.753Z,1.40
2022-08-07T06:29:08.468Z,1.50
2022-08-07T06:30:08.468Z,1.50
2022-08-07T06:31:10.029Z,1.40
2022-08-07T06:32:08.663Z,1.20
2022-08-07T06:33:15.620Z,1.30
2022-08-07T06:34:09.448Z,1.20
2022-08-07T06:35:10.611Z,1.60
2022-08-07T06:36:13.910Z,1.40
2022-08-07T06:37:08.374Z,1.40
2022-08-07T06:38:10.032Z,1.30
2022-08-07T06:40:16.977Z,1.40
2022-08-07T06:40:17.916Z,1.50
2022-08-07T06:41:13.036Z,1.40
2022-08-07T06:42:08.351Z,1.30
2022-08-07T06:43:21.460Z,1.40
2022-08-07T06:44:10.900Z,1.50
2022-08-07T06:45:11.311Z,1.30
2022-08-07T06:46:12.274Z,1.20
2022-08-07T06:47:12.329Z,1.30
2022-08-07T06:48:09.347Z,1.40
2022-08-07T06:49:08.303Z,1.30
2022-08-07T06:50:08.334Z,1.70
2022-08-07T06:51:08.384Z,1.40
2022-08-07T06:52:10.332Z,1.30
2022-08-07T06:53:49.325Z,1.30
2022-08-07T06:55:27.461Z,1.40
2022-08-07T06:55:34.391Z,1.30
2022-08-07T06:56:15.391Z,1.30
2022-08-07T06:57:09.148Z,1.20
2022-08-07T06:58:09.549Z,1.10
2022-08-07T07:00:12.818Z,1.30
2022-08-07T07:00:13.648Z,1.20
2022-08-07T07:01:09.156Z,1.20
2022-08-07T07:02:08.176Z,1.30
2022-08-07T07:03:10.717Z,1.50
2022-08-07T07:04:28.290Z,1.40
2022-08-07T07:05:12.577Z,1.60
2022-08-07T07:06:11.242Z,1.30
2022-08-07T07:07:10.401Z,1.30
2022-08-07T07:08:12.329Z,1.50
2022-08-07T07:09:08.061Z,1.30
2022-08-07T07:10:08.013Z,1.50
2022-08-07T07:11:14.083Z,1.30
2022-08-07T07:12:18.099Z,1.30
2022-08-07T07:13:10.035Z,1.30
2022-08-07T07:14:08.498Z,1.60
2022-08-07T07:15:09.166Z,1.40
2022-08-07T07:16:08.958Z,1.40
2022-08-07T07:17:07.928Z,1.50
2022-08-07T07:18:08.930Z,1.50
2022-08-07T07:19:40.997Z,1.40
2022-08-07T07:20:08.899Z,1.20
2022-08-07T07:21:13.429Z,1.30
2022-08-07T07:22:33.964Z,1.40
2022-08-07T07:24:06.089Z,1.40
2022-08-07T07:24:12.503Z,1.20
2022-08-07T07:26:31.583Z,1.70
2022-08-07T07:26:35.841Z,1.40
2022-08-07T07:27:08.825Z,1.50
2022-08-07T07:28:42.185Z,1.50
2022-08-07T07:29:39.918Z,1.50
2022-08-07T07:30:12.218Z,1.50
2022-08-07T07:31:08.917Z,1.40
2022-08-07T07:32:07.909Z,1.30
2022-08-07T07:33:07.985Z,1.40
2022-08-07T07:34:07.863Z,1.20
2022-08-07T07:35:07.753Z,1.30
2022-08-07T07:36:12.787Z,1.30
2022-08-07T07:37:22.139Z,1.60
2022-08-07T07:38:08.864Z,1.40
2022-08-07T07:39:07.795Z,1.20
2022-08-07T07:40:14.870Z,1.20
2022-08-07T07:41:09.117Z,1.20
2022-08-07T07:42:13.207Z,1.30
2022-08-07T07:43:15.079Z,1.20
2022-08-07T07:44:17.202Z,1.20
2022-08-07T07:45:08.665Z,1.40
2022-08-07T07:46:36.665Z,1.40
2022-08-07T07:47:14.067Z,1.40
2022-08-07T07:48:08.677Z,1.30
2022-08-07T07:49:08.904Z,1.40
2022-08-07T07:50:33.641Z,1.20
2022-08-07T07:51:08.660Z,1.50
2022-08-07T07:52:07.682Z,1.50
2022-08-07T07:53:13.505Z,1.20
2022-08-07T07:54:08.517Z,1.30
2022-08-07T07:55:07.516Z,1.40
2022-08-07T07:56:07.503Z,1.10
2022-08-07T07:57:07.596Z,1.30
2022-08-07T07:58:07.543Z,1.10
2022-08-07T07:59:07.483Z,1.40
2022-08-07T08:00:07.488Z,1.50
2022-08-07T08:02:01.529Z,1.30
2022-08-07T08:02:10.800Z,1.50
2022-08-07T08:03:08.445Z,1.20
2022-08-07T08:04:10.272Z,1.30
2022-08-07T08:05:14.336Z,1.20
2022-08-07T08:06:11.597Z,1.50
2022-08-07T08:07:07.825Z,1.40
2022-08-07T08:08:07.379Z,1.50
2022-08-07T08:09:08.381Z,1.30
2022-08-07T08:10:07.346Z,1.30
2022-08-07T08:11:08.666Z,1.30
2022-08-07T08:12:07.362Z,1.30
2022-08-07T08:13:07.319Z,1.30
2022-08-07T08:14:07.610Z,1.30
2022-08-07T08:15:08.269Z,1.40
2022-08-07T08:16:07.303Z,1.60
2022-08-07T08:17:55.632Z,1.30
2022-08-07T08:18:17.558Z,1.50
2022-08-07T08:19:17.756Z,1.30
2022-08-07T08:20:18.119Z,1.30
2022-08-07T08:21:08.254Z,1.40
2022-08-07T08:22:07.714Z,1.50
2022-08-07T08:23:08.521Z,1.40
2022-08-07T08:24:07.905Z,1.60
2022-08-07T08:25:24.737Z,1.40
2022-08-07T08:26:08.178Z,1.60
2022-08-07T08:27:09.607Z,1.40
2022-08-07T08:28:07.214Z,1.50
2022-08-07T08:29:08.273Z,1.30
2022-08-07T08:30:07.130Z,1.30
2022-08-07T08:31:07.125Z,1.30
2022-08-07T08:32:17.819Z,1.40
2022-08-07T08:33:10.290Z,1.50
2022-08-07T08:34:08.360Z,1.30
2022-08-07T08:35:07.605Z,1.50
2022-08-07T08:36:07.086Z,1.40
2022-08-07T08:37:09.870Z,1.50
2022-08-07T08:38:08.451Z,1.30
2022-08-07T08:39:07.079Z,1.50
2022-08-07T08:40:07.066Z,1.40
2022-08-07T08:41:08.070Z,1.30
2022-08-07T08:42:09.260Z,1.40
2022-08-07T08:43:07.012Z,1.40
2022-08-07T08:44:07.002Z,1.30
2022-08-07T08:45:13.293Z,1.20
2022-08-07T08:46:07.968Z,1.30
2022-08-07T08:47:09.869Z,1.50
2022-08-07T08:48:06.930Z,1.50
2022-08-07T08:49:06.954Z,1.50
2022-08-07T08:50:07.390Z,1.40
2022-08-07T08:51:14.746Z,1.40
2022-08-07T08:52:14.360Z,1.60
2022-08-07T08:53:07.909Z,1.50
2022-08-07T08:54:06.879Z,1.20
2022-08-07T08:55:07.876Z,1.40
2022-08-07T08:56:06.855Z,1.40
2022-08-07T08:57:06.910Z,1.40
2022-08-07T08:58:06.872Z,1.40
2022-08-07T08:59:13.741Z,1.40
2022-08-07T09:00:09.422Z,1.40
2022-08-07T09:01:15.080Z,1.50
2022-08-07T09:02:08.956Z,1.50
2022-08-07T09:03:07.583Z,1.40
2022-08-07T09:04:06.804Z,1.30
2022-08-07T09:05:06.759Z,1.40
2022-08-07T09:06:06.736Z,1.40
2022-08-07T09:07:06.737Z,1.50
2022-08-07T09:08:06.866Z,1.40
2022-08-07T09:09:09.704Z,1.40
2022-08-07T09:10:07.692Z,1.30
2022-08-07T09:11:06.730Z,1.50
2022-08-07T09:12:30.473Z,1.50
2022-08-07T09:13:07.683Z,1.40
2022-08-07T09:14:06.667Z,1.60
2022-08-07T09:16:22.654Z,1.40
2022-08-07T09:16:25.380Z,1.40
2022-08-07T09:17:07.751Z,1.50
2022-08-07T09:18:11.535Z,1.50
2022-08-07T09:19:52.214Z,1.40
2022-08-07T09:20:09.447Z,1.30
2022-08-07T09:21:13.849Z,1.50
2022-08-07T09:24:27.243Z,1.50
2022-08-07T09:24:30.449Z,1.50
2022-08-07T09:24:54.807Z,1.50
2022-08-07T09:25:14.588Z,1.50
2022-08-07T09:26:08.378Z,1.60
2022-08-07T09:27:09.078Z,1.30
2022-08-07T09:30:01.625Z,1.40
2022-08-07T09:30:03.549Z,1.70
2022-08-07T09:30:08.746Z,1.60
2022-08-07T09:31:06.505Z,1.60
2022-08-07T09:32:17.111Z,1.40
2022-08-07T09:33:16.444Z,1.50
2022-08-07T09:34:07.491Z,1.70
2022-08-07T09:36:01.006Z,1.60
2022-08-07T09:36:07.780Z,1.60
2022-08-07T09:37:06.494Z,1.60
2022-08-07T09:38:06.429Z,1.60
2022-08-07T09:39:18.000Z,1.40
2022-08-07T09:40:07.448Z,1.60
2022-08-07T09:41:06.461Z,1.70
2022-08-07T09:42:07.684Z,1.50
2022-08-07T09:43:08.336Z,1.50
2022-08-07T09:44:20.001Z,1.70
2022-08-07T09:47:51.179Z,1.70
2022-08-07T09:48:20.202Z,1.80
2022-08-07T09:50:02.723Z,1.80
2022-08-07T09:50:20.189Z,1.90
2022-08-07T09:52:10.428Z,1.70
2022-08-07T09:52:34.473Z,1.60
2022-08-07T09:53:20.402Z,1.70
2022-08-07T09:54:19.105Z,1.90
2022-08-07T09:55:29.646Z,1.70
2022-08-07T09:56:37.609Z,2.00
2022-08-07T09:57:20.090Z,1.80
2022-08-07T09:58:19.108Z,1.90
2022-08-07T09:59:21.969Z,1.70
2022-08-07T10:00:19.084Z,1.70
2022-08-07T10:01:53.079Z,1.60
2022-08-07T10:02:20.077Z,1.70
2022-08-07T10:04:06.927Z,1.70
2022-08-07T10:04:32.562Z,1.70
2022-08-07T10:05:20.112Z,1.70
2022-08-07T10:06:24.461Z,1.80
2022-08-07T10:07:24.424Z,1.90
2022-08-07T10:08:19.952Z,1.90
2022-08-07T10:09:23.721Z,1.80
2022-08-07T10:10:21.617Z,1.90
2022-08-07T10:12:02.403Z,1.80
2022-08-07T10:12:21.447Z,1.60
2022-08-07T10:13:54.844Z,2.00
2022-08-07T10:14:22.686Z,1.90
2022-08-07T10:15:19.854Z,1.90
2022-08-07T10:16:19.142Z,1.70
2022-08-07T10:17:18.833Z,1.80
2022-08-07T10:18:18.873Z,1.60
2022-08-07T10:19:18.845Z,1.80
2022-08-07T10:20:22.001Z,1.80
2022-08-07T10:22:12.388Z,1.80
2022-08-07T10:22:33.367Z,2.00
2022-08-07T10:24:05.346Z,1.70
2022-08-07T10:24:21.409Z,1.70
2022-08-07T10:25:22.547Z,1.70
2022-08-07T10:26:24.685Z,1.70
2022-08-07T10:27:19.813Z,1.70
2022-08-07T10:28:18.764Z,1.50
2022-08-07T10:29:18.891Z,1.70
2022-08-07T10:30:18.952Z,1.70
2022-08-07T10:31:18.691Z,1.90
2022-08-07T10:32:51.402Z,1.70
2022-08-07T10:33:19.762Z,1.80
2022-08-07T10:34:31.873Z,1.90
2022-08-07T10:35:20.252Z,1.80
2022-08-07T10:36:18.648Z,1.50
2022-08-07T10:37:19.656Z,1.80
2022-08-07T10:38:36.235Z,1.80
2022-08-07T10:39:19.869Z,1.80
2022-08-07T10:40:18.748Z,1.60
2022-08-07T10:41:47.241Z,1.80
2022-08-07T10:42:20.879Z,1.60
2022-08-07T10:43:19.344Z,1.70
2022-08-07T10:44:33.903Z,1.50
2022-08-07T10:45:57.624Z,1.80
2022-08-07T10:46:19.537Z,1.60
2022-08-07T10:47:27.053Z,1.70
2022-08-07T10:48:24.192Z,1.60
2022-08-07T10:49:24.478Z,1.80
2022-08-07T10:50:25.848Z,1.60
2022-08-07T10:51:39.368Z,1.70
2022-08-07T10:52:21.009Z,1.50
2022-08-07T10:53:21.527Z,1.70
2022-08-07T10:54:19.982Z,1.80
2022-08-07T10:55:27.050Z,1.80
2022-08-07T10:56:31.242Z,1.80
2022-08-07T10:57:33.924Z,1.80
2022-08-07T10:58:25.126Z,1.70
2022-08-07T10:59:21.308Z,1.70
2022-08-07T11:00:36.701Z,1.60
2022-08-07T11:01:23.531Z,1.50
2022-08-07T11:02:33.445Z,1.60
2022-08-07T11:03:20.906Z,1.70
2022-08-07T11:04:31.560Z,1.70
2022-08-07T11:05:21.006Z,1.60
2022-08-07T11:06:22.007Z,1.60
2022-08-07T11:07:56.479Z,1.70
2022-08-07T11:08:20.949Z,1.70
2022-08-07T11:10:08.403Z,1.50
2022-08-07T11:10:20.822Z,1.70
2022-08-07T11:11:20.211Z,1.60
2022-08-07T11:12:32.064Z,1.40
2022-08-07T11:14:46.351Z,1.70
2022-08-07T11:14:57.017Z,1.70
2022-08-07T11:15:21.702Z,1.70
2022-08-07T11:16:20.809Z,1.60
2022-08-07T11:17:23.341Z,1.50
2022-08-07T11:18:20.775Z,1.50
2022-08-07T11:19:21.580Z,1.90
2022-08-07T11:20:22.467Z,1.70
2022-08-07T11:21:19.723Z,1.70
2022-08-07T11:22:33.233Z,1.70
2022-08-07T11:23:30.911Z,1.60
2022-08-07T11:24:20.754Z,1.70
2022-08-07T11:25:31.052Z,1.70
2022-08-07T11:26:20.710Z,1.80
2022-08-07T11:27:20.634Z,1.70
2022-08-07T11:28:20.669Z,1.60
2022-08-07T11:29:41.095Z,1.60
2022-08-07T11:30:39.113Z,1.80
2022-08-07T11:31:20.648Z,1.90
2022-08-07T11:32:25.726Z,1.80
2022-08-07T11:34:29.275Z,2.20
2022-08-07T11:35:25.087Z,1.70
2022-08-07T11:36:30.495Z,1.60
2022-08-07T11:37:24.353Z,1.90
2022-08-07T11:38:21.252Z,1.60
2022-08-07T11:39:20.472Z,1.80
2022-08-07T11:40:19.953Z,1.60
2022-08-07T11:41:31.072Z,1.70
2022-08-07T11:42:21.365Z,1.60
2022-08-07T11:43:41.159Z,1.80
2022-08-07T11:44:20.494Z,1.70
2022-08-07T11:45:20.564Z,1.80
2022-08-07T11:46:19.463Z,1.60
2022-08-07T11:47:19.500Z,1.70
2022-08-07T11:48:29.494Z,1.90
2022-08-07T11:49:51.494Z,1.70
2022-08-07T11:50:32.063Z,1.80
2022-08-07T11:52:29.338Z,1.70
2022-08-07T11:53:21.795Z,1.80
2022-08-07T11:54:25.311Z,1.80
2022-08-07T11:56:25.419Z,1.70
2022-08-07T11:56:26.718Z,1.50
2022-08-07T11:57:20.363Z,1.80
2022-08-07T11:58:20.406Z,1.80
2022-08-07T12:00:08.207Z,1.80
2022-08-07T12:02:00.539Z,1.60
2022-08-07T12:02:40.652Z,1.80
2022-08-07T12:03:44.336Z,1.50
2022-08-07T12:04:39.274Z,1.70
2022-08-07T12:05:47.328Z,1.70
2022-08-07T12:06:44.860Z,1.80
2022-08-07T12:07:40.211Z,1.60
2022-08-07T12:08:38.271Z,1.80
2022-08-07T12:09:38.254Z,1.80
2022-08-07T12:10:41.840Z,1.80
2022-08-07T12:11:43.486Z,1.90
2022-08-07T12:13:47.710Z,1.70
2022-08-07T12:14:38.386Z,1.60
2022-08-07T12:16:06.319Z,1.80
2022-08-07T12:16:39.201Z,1.90
2022-08-07T12:17:38.479Z,1.80
2022-08-07T12:18:38.129Z,1.70
2022-08-07T12:20:03.279Z,1.70
2022-08-07T12:20:39.655Z,1.80
2022-08-07T12:21:55.870Z,1.60
2022-08-07T12:22:55.854Z,1.70
2022-08-07T12:24:06.633Z,1.70
2022-08-07T12:24:40.241Z,1.70
2022-08-07T12:26:22.141Z,1.70
2022-08-07T12:26:41.856Z,1.60
2022-08-07T12:28:09.962Z,1.60
2022-08-07T12:28:39.937Z,1.80
2022-08-07T12:30:53.094Z,1.80
2022-08-07T12:32:01.986Z,1.90
2022-08-07T12:32:39.007Z,1.80
2022-08-07T12:33:56.278Z,1.70
2022-08-07T12:34:38.963Z,1.80
2022-08-07T12:35:38.000Z,1.70
2022-08-07T12:36:37.955Z,1.80
2022-08-07T12:38:10.638Z,1.80
2022-08-07T12:38:47.123Z,1.70
2022-08-07T12:39:38.927Z,1.70
2022-08-07T12:40:47.297Z,1.70
2022-08-07T12:41:49.248Z,1.70
2022-08-07T12:42:38.899Z,1.80
2022-08-07T12:44:04.395Z,1.70
2022-08-07T12:44:38.863Z,1.70
2022-08-07T12:45:37.894Z,1.70
2022-08-07T12:46:38.139Z,1.50
2022-08-07T12:47:39.618Z,1.70
2022-08-07T12:48:41.505Z,1.50
2022-08-07T12:49:49.133Z,1.60
2022-08-07T12:50:49.079Z,1.70
2022-08-07T12:51:50.952Z,1.80
2022-08-07T12:52:38.793Z,1.60
2022-08-07T12:54:24.306Z,1.80
2022-08-07T12:54:39.827Z,1.70
2022-08-07T12:55:41.171Z,1.90
2022-08-07T12:56:38.745Z,1.60
2022-08-07T12:57:39.192Z,1.90
2022-08-07T12:58:39.648Z,1.90
2022-08-07T12:59:54.955Z,1.80
2022-08-07T13:00:49.602Z,2.00
2022-08-07T13:01:38.931Z,1.60
2022-08-07T13:02:37.736Z,1.80
2022-08-07T13:04:02.578Z,1.70
2022-08-07T13:04:38.835Z,1.50
2022-08-07T13:06:02.708Z,1.60
2022-08-07T13:07:01.267Z,1.80
2022-08-07T13:08:12.845Z,1.80
2022-08-07T13:08:38.675Z,1.80
2022-08-07T13:10:19.283Z,1.60
2022-08-07T13:10:44.787Z,1.50
2022-08-07T13:12:03.344Z,1.60
2022-08-07T13:12:38.694Z,1.70
2022-08-07T13:13:47.465Z,1.70
2022-08-07T13:14:38.549Z,1.80
2022-08-07T13:15:38.549Z,1.60
2022-08-07T13:16:37.539Z,1.80
2022-08-07T13:17:41.030Z,1.80
2022-08-07T13:18:38.667Z,1.60
2022-08-07T13:19:50.707Z,1.60
2022-08-07T13:20:38.538Z,1.90
2022-08-07T13:21:57.384Z,1.50
2022-08-07T13:22:39.580Z,1.90
2022-08-07T13:24:01.625Z,1.70
2022-08-07T13:24:38.470Z,1.60
2022-08-07T13:25:38.489Z,1.70